sensor_id;sensor_type;location;lat;lon;timestamp;P1;durP1;ratioP1;P2;durP2;ratioP2
28003;SDS011;15330;51.234;6.754;2023-04-19T00:02:22;28.70;;;18.48;;
28003;SDS011;15330;51.234;6.754;2023-04-19T00:04:47;29.27;;;20.23;;
28003;SDS011;15330;51.234;6.754;2023-04-19T00:07:13;26.00;;;18.80;;
28003;SDS011;15330;51.234;6.754;2023-04-19T00:09:38;26.50;;;19.05;;
28003;SDS011;15330;51.234;6.754;2023-04-19T00:12:04;27.45;;;19.50;;
28003;SDS011;15330;51.234;6.754;2023-04-19T00:14:29;24.42;;;18.48;;
28003;SDS011;15330;51.234;6.754;2023-04-19T00:16:55;26.90;;;18.77;;
28003;SDS011;15330;51.234;6.754;2023-04-19T00:19:20;26.92;;;19.13;;
28003;SDS011;15330;51.234;6.754;2023-04-19T00:21:47;30.65;;;20.65;;
28003;SDS011;15330;51.234;6.754;2023-04-19T00:24:12;30.90;;;19.75;;
28003;SDS011;15330;51.234;6.754;2023-04-19T00:26:38;24.58;;;18.88;;
28003;SDS011;15330;51.234;6.754;2023-04-19T00:29:03;28.38;;;20.40;;
28003;SDS011;15330;51.234;6.754;2023-04-19T00:31:29;28.13;;;19.73;;
28003;SDS011;15330;51.234;6.754;2023-04-19T00:33:55;26.92;;;19.80;;
28003;SDS011;15330;51.234;6.754;2023-04-19T00:36:20;30.85;;;19.60;;
28003;SDS011;15330;51.234;6.754;2023-04-19T00:38:46;31.35;;;19.83;;
28003;SDS011;15330;51.234;6.754;2023-04-19T00:41:11;28.25;;;20.23;;
28003;SDS011;15330;51.234;6.754;2023-04-19T00:43:37;29.88;;;20.60;;
28003;SDS011;15330;51.234;6.754;2023-04-19T00:46:02;30.13;;;19.58;;
28003;SDS011;15330;51.234;6.754;2023-04-19T00:48:28;27.80;;;19.25;;
28003;SDS011;15330;51.234;6.754;2023-04-19T00:50:54;26.80;;;18.58;;
28003;SDS011;15330;51.234;6.754;2023-04-19T00:53:20;29.63;;;21.08;;
28003;SDS011;15330;51.234;6.754;2023-04-19T00:55:45;33.92;;;19.92;;
28003;SDS011;15330;51.234;6.754;2023-04-19T00:58:11;26.40;;;18.48;;
28003;SDS011;15330;51.234;6.754;2023-04-19T01:00:37;27.88;;;18.92;;
28003;SDS011;15330;51.234;6.754;2023-04-19T01:03:02;28.50;;;19.85;;
28003;SDS011;15330;51.234;6.754;2023-04-19T01:05:28;27.90;;;20.05;;
28003;SDS011;15330;51.234;6.754;2023-04-19T01:07:54;30.77;;;19.85;;
28003;SDS011;15330;51.234;6.754;2023-04-19T01:10:19;28.08;;;19.30;;
28003;SDS011;15330;51.234;6.754;2023-04-19T01:12:45;28.05;;;19.77;;
28003;SDS011;15330;51.234;6.754;2023-04-19T01:15:10;29.30;;;19.52;;
28003;SDS011;15330;51.234;6.754;2023-04-19T01:17:36;29.17;;;20.40;;
28003;SDS011;15330;51.234;6.754;2023-04-19T01:20:02;28.15;;;18.83;;
28003;SDS011;15330;51.234;6.754;2023-04-19T01:22:30;29.38;;;20.00;;
28003;SDS011;15330;51.234;6.754;2023-04-19T01:24:56;29.92;;;20.48;;
28003;SDS011;15330;51.234;6.754;2023-04-19T01:27:21;29.35;;;20.08;;
28003;SDS011;15330;51.234;6.754;2023-04-19T01:29:48;30.27;;;20.13;;
28003;SDS011;15330;51.234;6.754;2023-04-19T01:32:13;29.05;;;20.75;;
28003;SDS011;15330;51.234;6.754;2023-04-19T01:34:38;30.48;;;19.98;;
28003;SDS011;15330;51.234;6.754;2023-04-19T01:37:04;32.80;;;20.65;;
28003;SDS011;15330;51.234;6.754;2023-04-19T01:39:29;28.98;;;19.98;;
28003;SDS011;15330;51.234;6.754;2023-04-19T01:41:55;31.90;;;20.90;;
28003;SDS011;15330;51.234;6.754;2023-04-19T01:44:20;31.05;;;20.23;;
28003;SDS011;15330;51.234;6.754;2023-04-19T01:46:46;28.60;;;20.13;;
28003;SDS011;15330;51.234;6.754;2023-04-19T01:49:12;32.05;;;20.40;;
28003;SDS011;15330;51.234;6.754;2023-04-19T01:51:37;30.08;;;20.58;;
28003;SDS011;15330;51.234;6.754;2023-04-19T01:54:03;28.48;;;19.77;;
28003;SDS011;15330;51.234;6.754;2023-04-19T01:56:28;30.42;;;20.45;;
28003;SDS011;15330;51.234;6.754;2023-04-19T01:58:54;31.67;;;21.17;;
28003;SDS011;15330;51.234;6.754;2023-04-19T02:01:20;30.10;;;19.00;;
28003;SDS011;15330;51.234;6.754;2023-04-19T02:03:45;31.88;;;21.42;;
28003;SDS011;15330;51.234;6.754;2023-04-19T02:06:11;31.30;;;21.65;;
28003;SDS011;15330;51.234;6.754;2023-04-19T02:08:40;33.75;;;20.83;;
28003;SDS011;15330;51.234;6.754;2023-04-19T02:11:09;27.38;;;19.85;;
28003;SDS011;15330;51.234;6.754;2023-04-19T02:13:38;28.48;;;19.90;;
28003;SDS011;15330;51.234;6.754;2023-04-19T02:16:04;31.20;;;21.35;;
28003;SDS011;15330;51.234;6.754;2023-04-19T02:18:30;29.42;;;20.48;;
28003;SDS011;15330;51.234;6.754;2023-04-19T02:20:56;30.50;;;21.38;;
28003;SDS011;15330;51.234;6.754;2023-04-19T02:23:23;27.33;;;20.13;;
28003;SDS011;15330;51.234;6.754;2023-04-19T02:25:48;30.38;;;21.98;;
28003;SDS011;15330;51.234;6.754;2023-04-19T02:28:14;31.13;;;21.15;;
28003;SDS011;15330;51.234;6.754;2023-04-19T02:30:40;32.08;;;20.95;;
28003;SDS011;15330;51.234;6.754;2023-04-19T02:33:05;34.53;;;22.85;;
28003;SDS011;15330;51.234;6.754;2023-04-19T02:35:30;30.73;;;21.85;;
28003;SDS011;15330;51.234;6.754;2023-04-19T02:37:56;33.58;;;21.42;;
28003;SDS011;15330;51.234;6.754;2023-04-19T02:40:21;31.67;;;21.92;;
28003;SDS011;15330;51.234;6.754;2023-04-19T02:42:47;30.65;;;21.75;;
28003;SDS011;15330;51.234;6.754;2023-04-19T02:45:13;31.25;;;22.20;;
28003;SDS011;15330;51.234;6.754;2023-04-19T02:47:38;32.63;;;22.55;;
28003;SDS011;15330;51.234;6.754;2023-04-19T02:50:04;31.98;;;21.23;;
28003;SDS011;15330;51.234;6.754;2023-04-19T02:52:30;30.67;;;22.10;;
28003;SDS011;15330;51.234;6.754;2023-04-19T02:54:55;29.48;;;20.77;;
28003;SDS011;15330;51.234;6.754;2023-04-19T02:57:21;29.60;;;20.70;;
28003;SDS011;15330;51.234;6.754;2023-04-19T02:59:46;29.00;;;20.88;;
28003;SDS011;15330;51.234;6.754;2023-04-19T03:02:12;30.42;;;21.30;;
28003;SDS011;15330;51.234;6.754;2023-04-19T03:04:37;31.30;;;20.98;;
28003;SDS011;15330;51.234;6.754;2023-04-19T03:07:02;28.48;;;20.35;;
28003;SDS011;15330;51.234;6.754;2023-04-19T03:09:28;33.35;;;22.23;;
28003;SDS011;15330;51.234;6.754;2023-04-19T03:11:53;30.23;;;19.70;;
28003;SDS011;15330;51.234;6.754;2023-04-19T03:14:18;31.35;;;20.83;;
28003;SDS011;15330;51.234;6.754;2023-04-19T03:16:44;29.65;;;20.65;;
28003;SDS011;15330;51.234;6.754;2023-04-19T03:19:09;32.15;;;20.90;;
28003;SDS011;15330;51.234;6.754;2023-04-19T03:21:34;29.50;;;20.60;;
28003;SDS011;15330;51.234;6.754;2023-04-19T03:24:00;32.13;;;22.38;;
28003;SDS011;15330;51.234;6.754;2023-04-19T03:26:25;29.33;;;20.25;;
28003;SDS011;15330;51.234;6.754;2023-04-19T03:28:51;27.27;;;19.73;;
28003;SDS011;15330;51.234;6.754;2023-04-19T03:31:17;29.38;;;20.60;;
28003;SDS011;15330;51.234;6.754;2023-04-19T03:33:42;30.80;;;20.52;;
28003;SDS011;15330;51.234;6.754;2023-04-19T03:36:08;26.95;;;20.05;;
28003;SDS011;15330;51.234;6.754;2023-04-19T03:38:33;31.80;;;20.70;;
28003;SDS011;15330;51.234;6.754;2023-04-19T03:40:58;29.77;;;19.80;;
28003;SDS011;15330;51.234;6.754;2023-04-19T03:43:24;29.33;;;19.73;;
28003;SDS011;15330;51.234;6.754;2023-04-19T03:45:49;31.00;;;20.77;;
28003;SDS011;15330;51.234;6.754;2023-04-19T03:48:15;32.95;;;20.40;;
28003;SDS011;15330;51.234;6.754;2023-04-19T03:50:40;29.23;;;19.73;;
28003;SDS011;15330;51.234;6.754;2023-04-19T03:53:05;27.50;;;18.92;;
28003;SDS011;15330;51.234;6.754;2023-04-19T03:55:31;28.75;;;18.63;;
28003;SDS011;15330;51.234;6.754;2023-04-19T03:57:56;25.40;;;17.75;;
28003;SDS011;15330;51.234;6.754;2023-04-19T04:00:22;29.08;;;18.17;;
28003;SDS011;15330;51.234;6.754;2023-04-19T04:02:47;30.15;;;18.15;;
28003;SDS011;15330;51.234;6.754;2023-04-19T04:05:13;26.00;;;17.48;;
28003;SDS011;15330;51.234;6.754;2023-04-19T04:07:39;26.20;;;17.52;;
28003;SDS011;15330;51.234;6.754;2023-04-19T04:10:04;24.63;;;17.05;;
28003;SDS011;15330;51.234;6.754;2023-04-19T04:12:31;25.33;;;16.30;;
28003;SDS011;15330;51.234;6.754;2023-04-19T04:14:56;25.40;;;16.50;;
28003;SDS011;15330;51.234;6.754;2023-04-19T04:17:21;24.05;;;16.75;;
28003;SDS011;15330;51.234;6.754;2023-04-19T04:19:48;25.23;;;15.70;;
28003;SDS011;15330;51.234;6.754;2023-04-19T04:22:15;22.10;;;14.38;;
28003;SDS011;15330;51.234;6.754;2023-04-19T04:24:41;21.75;;;13.95;;
28003;SDS011;15330;51.234;6.754;2023-04-19T04:27:07;19.05;;;12.75;;
28003;SDS011;15330;51.234;6.754;2023-04-19T04:29:36;18.65;;;12.15;;
28003;SDS011;15330;51.234;6.754;2023-04-19T04:32:02;18.30;;;12.25;;
28003;SDS011;15330;51.234;6.754;2023-04-19T04:34:30;18.73;;;12.38;;
28003;SDS011;15330;51.234;6.754;2023-04-19T04:36:57;18.42;;;12.15;;
28003;SDS011;15330;51.234;6.754;2023-04-19T04:39:22;16.35;;;11.20;;
28003;SDS011;15330;51.234;6.754;2023-04-19T04:41:47;15.73;;;10.75;;
28003;SDS011;15330;51.234;6.754;2023-04-19T04:44:13;16.70;;;10.60;;
28003;SDS011;15330;51.234;6.754;2023-04-19T04:46:39;15.95;;;9.85;;
28003;SDS011;15330;51.234;6.754;2023-04-19T04:49:04;14.85;;;9.65;;
28003;SDS011;15330;51.234;6.754;2023-04-19T04:51:30;15.60;;;10.27;;
28003;SDS011;15330;51.234;6.754;2023-04-19T04:53:56;11.90;;;8.77;;
28003;SDS011;15330;51.234;6.754;2023-04-19T04:56:22;14.93;;;9.40;;
28003;SDS011;15330;51.234;6.754;2023-04-19T04:58:47;11.57;;;8.55;;
28003;SDS011;15330;51.234;6.754;2023-04-19T05:01:13;13.35;;;8.70;;
28003;SDS011;15330;51.234;6.754;2023-04-19T05:03:38;13.10;;;9.07;;
28003;SDS011;15330;51.234;6.754;2023-04-19T05:06:04;13.23;;;9.10;;
28003;SDS011;15330;51.234;6.754;2023-04-19T05:08:29;13.88;;;8.52;;
28003;SDS011;15330;51.234;6.754;2023-04-19T05:10:54;14.93;;;8.98;;
28003;SDS011;15330;51.234;6.754;2023-04-19T05:13:20;13.50;;;8.57;;
28003;SDS011;15330;51.234;6.754;2023-04-19T05:15:45;12.00;;;8.18;;
28003;SDS011;15330;51.234;6.754;2023-04-19T05:18:11;11.52;;;8.32;;
28003;SDS011;15330;51.234;6.754;2023-04-19T05:20:36;12.40;;;7.63;;
28003;SDS011;15330;51.234;6.754;2023-04-19T05:23:01;14.10;;;7.95;;
28003;SDS011;15330;51.234;6.754;2023-04-19T05:25:27;12.43;;;7.75;;
28003;SDS011;15330;51.234;6.754;2023-04-19T05:27:53;10.60;;;7.43;;
28003;SDS011;15330;51.234;6.754;2023-04-19T05:30:19;14.23;;;8.63;;
28003;SDS011;15330;51.234;6.754;2023-04-19T05:32:44;10.55;;;7.32;;
28003;SDS011;15330;51.234;6.754;2023-04-19T05:35:10;10.07;;;7.78;;
28003;SDS011;15330;51.234;6.754;2023-04-19T05:37:36;14.15;;;7.53;;
28003;SDS011;15330;51.234;6.754;2023-04-19T05:40:02;10.20;;;7.50;;
28003;SDS011;15330;51.234;6.754;2023-04-19T05:42:29;12.65;;;7.57;;
28003;SDS011;15330;51.234;6.754;2023-04-19T05:44:55;17.05;;;7.78;;
28003;SDS011;15330;51.234;6.754;2023-04-19T05:47:20;14.00;;;8.27;;
28003;SDS011;15330;51.234;6.754;2023-04-19T05:49:46;8.95;;;6.35;;
28003;SDS011;15330;51.234;6.754;2023-04-19T05:52:11;11.63;;;7.38;;
28003;SDS011;15330;51.234;6.754;2023-04-19T05:54:38;13.73;;;8.48;;
28003;SDS011;15330;51.234;6.754;2023-04-19T05:57:03;12.75;;;8.48;;
28003;SDS011;15330;51.234;6.754;2023-04-19T05:59:28;11.68;;;7.68;;
28003;SDS011;15330;51.234;6.754;2023-04-19T06:01:54;11.95;;;7.20;;
28003;SDS011;15330;51.234;6.754;2023-04-19T06:04:20;12.43;;;7.50;;
28003;SDS011;15330;51.234;6.754;2023-04-19T06:06:45;11.35;;;6.82;;
28003;SDS011;15330;51.234;6.754;2023-04-19T06:09:11;10.43;;;7.30;;
28003;SDS011;15330;51.234;6.754;2023-04-19T06:11:37;11.13;;;7.38;;
28003;SDS011;15330;51.234;6.754;2023-04-19T06:14:03;9.70;;;7.30;;
28003;SDS011;15330;51.234;6.754;2023-04-19T06:16:29;9.70;;;7.18;;
28003;SDS011;15330;51.234;6.754;2023-04-19T06:18:54;11.77;;;7.68;;
28003;SDS011;15330;51.234;6.754;2023-04-19T06:21:20;13.82;;;7.22;;
28003;SDS011;15330;51.234;6.754;2023-04-19T06:23:46;14.40;;;7.50;;
28003;SDS011;15330;51.234;6.754;2023-04-19T06:26:11;11.93;;;7.22;;
28003;SDS011;15330;51.234;6.754;2023-04-19T06:28:37;10.90;;;7.30;;
28003;SDS011;15330;51.234;6.754;2023-04-19T06:31:02;10.85;;;7.05;;
28003;SDS011;15330;51.234;6.754;2023-04-19T06:33:28;15.25;;;7.97;;
28003;SDS011;15330;51.234;6.754;2023-04-19T06:35:53;9.30;;;7.30;;
28003;SDS011;15330;51.234;6.754;2023-04-19T06:38:19;9.23;;;7.28;;
28003;SDS011;15330;51.234;6.754;2023-04-19T06:40:44;11.75;;;8.20;;
28003;SDS011;15330;51.234;6.754;2023-04-19T06:43:10;13.70;;;7.68;;
28003;SDS011;15330;51.234;6.754;2023-04-19T06:45:35;11.85;;;7.82;;
28003;SDS011;15330;51.234;6.754;2023-04-19T06:48:00;12.20;;;8.68;;
28003;SDS011;15330;51.234;6.754;2023-04-19T06:50:26;16.05;;;8.88;;
28003;SDS011;15330;51.234;6.754;2023-04-19T06:52:52;11.18;;;7.70;;
28003;SDS011;15330;51.234;6.754;2023-04-19T06:55:17;13.80;;;7.55;;
28003;SDS011;15330;51.234;6.754;2023-04-19T06:57:42;10.45;;;7.45;;
28003;SDS011;15330;51.234;6.754;2023-04-19T07:00:08;13.95;;;7.25;;
28003;SDS011;15330;51.234;6.754;2023-04-19T07:02:34;16.90;;;9.35;;
28003;SDS011;15330;51.234;6.754;2023-04-19T07:05:00;10.57;;;8.07;;
28003;SDS011;15330;51.234;6.754;2023-04-19T07:07:25;11.77;;;7.82;;
28003;SDS011;15330;51.234;6.754;2023-04-19T07:09:50;13.57;;;8.27;;
28003;SDS011;15330;51.234;6.754;2023-04-19T07:12:16;16.00;;;8.45;;
28003;SDS011;15330;51.234;6.754;2023-04-19T07:14:41;10.75;;;7.88;;
28003;SDS011;15330;51.234;6.754;2023-04-19T07:17:06;15.15;;;8.85;;
28003;SDS011;15330;51.234;6.754;2023-04-19T07:19:32;14.57;;;8.25;;
28003;SDS011;15330;51.234;6.754;2023-04-19T07:21:59;10.38;;;8.10;;
28003;SDS011;15330;51.234;6.754;2023-04-19T07:24:25;12.82;;;7.97;;
28003;SDS011;15330;51.234;6.754;2023-04-19T07:26:51;10.85;;;7.70;;
28003;SDS011;15330;51.234;6.754;2023-04-19T07:29:17;13.35;;;7.75;;
28003;SDS011;15330;51.234;6.754;2023-04-19T07:31:43;14.57;;;7.95;;
28003;SDS011;15330;51.234;6.754;2023-04-19T07:34:08;11.63;;;8.25;;
28003;SDS011;15330;51.234;6.754;2023-04-19T07:36:34;15.32;;;8.48;;
28003;SDS011;15330;51.234;6.754;2023-04-19T07:39:01;16.08;;;8.35;;
28003;SDS011;15330;51.234;6.754;2023-04-19T07:41:26;12.75;;;9.05;;
28003;SDS011;15330;51.234;6.754;2023-04-19T07:43:52;18.90;;;8.73;;
28003;SDS011;15330;51.234;6.754;2023-04-19T07:46:17;17.10;;;9.55;;
28003;SDS011;15330;51.234;6.754;2023-04-19T07:48:43;15.07;;;8.90;;
28003;SDS011;15330;51.234;6.754;2023-04-19T07:51:09;16.23;;;8.40;;
28003;SDS011;15330;51.234;6.754;2023-04-19T07:53:35;16.02;;;9.90;;
28003;SDS011;15330;51.234;6.754;2023-04-19T07:56:01;23.98;;;12.27;;
28003;SDS011;15330;51.234;6.754;2023-04-19T07:58:27;11.45;;;8.18;;
28003;SDS011;15330;51.234;6.754;2023-04-19T08:00:52;9.80;;;7.63;;
28003;SDS011;15330;51.234;6.754;2023-04-19T08:03:18;14.10;;;7.47;;
28003;SDS011;15330;51.234;6.754;2023-04-19T08:05:43;14.10;;;7.82;;
28003;SDS011;15330;51.234;6.754;2023-04-19T08:08:08;11.07;;;7.20;;
28003;SDS011;15330;51.234;6.754;2023-04-19T08:10:34;9.02;;;6.68;;
28003;SDS011;15330;51.234;6.754;2023-04-19T08:12:59;15.82;;;6.95;;
28003;SDS011;15330;51.234;6.754;2023-04-19T08:15:25;10.27;;;6.88;;
28003;SDS011;15330;51.234;6.754;2023-04-19T08:17:50;13.93;;;6.60;;
28003;SDS011;15330;51.234;6.754;2023-04-19T08:20:16;10.13;;;6.93;;
28003;SDS011;15330;51.234;6.754;2023-04-19T08:22:41;7.88;;;6.47;;
28003;SDS011;15330;51.234;6.754;2023-04-19T08:25:07;12.18;;;6.70;;
28003;SDS011;15330;51.234;6.754;2023-04-19T08:27:33;9.77;;;6.55;;
28003;SDS011;15330;51.234;6.754;2023-04-19T08:29:59;11.35;;;6.55;;
28003;SDS011;15330;51.234;6.754;2023-04-19T08:32:25;10.90;;;6.38;;
28003;SDS011;15330;51.234;6.754;2023-04-19T08:34:50;8.13;;;5.95;;
28003;SDS011;15330;51.234;6.754;2023-04-19T08:37:16;12.45;;;6.35;;
28003;SDS011;15330;51.234;6.754;2023-04-19T08:39:42;9.30;;;6.18;;
28003;SDS011;15330;51.234;6.754;2023-04-19T08:42:08;9.52;;;5.95;;
28003;SDS011;15330;51.234;6.754;2023-04-19T08:44:34;9.35;;;5.97;;
28003;SDS011;15330;51.234;6.754;2023-04-19T08:47:02;11.48;;;6.68;;
28003;SDS011;15330;51.234;6.754;2023-04-19T08:49:28;14.70;;;7.40;;
28003;SDS011;15330;51.234;6.754;2023-04-19T08:51:58;12.40;;;5.70;;
28003;SDS011;15330;51.234;6.754;2023-04-19T08:54:24;20.13;;;8.50;;
28003;SDS011;15330;51.234;6.754;2023-04-19T08:56:51;10.40;;;5.55;;
28003;SDS011;15330;51.234;6.754;2023-04-19T08:59:17;7.15;;;5.25;;
28003;SDS011;15330;51.234;6.754;2023-04-19T09:01:42;11.02;;;5.15;;
28003;SDS011;15330;51.234;6.754;2023-04-19T09:04:08;9.65;;;5.82;;
28003;SDS011;15330;51.234;6.754;2023-04-19T09:06:36;10.82;;;5.63;;
28003;SDS011;15330;51.234;6.754;2023-04-19T09:09:15;6.45;;;4.57;;
28003;SDS011;15330;51.234;6.754;2023-04-19T09:11:42;6.85;;;5.03;;
28003;SDS011;15330;51.234;6.754;2023-04-19T09:14:12;7.05;;;5.15;;
28003;SDS011;15330;51.234;6.754;2023-04-19T09:16:38;10.25;;;4.53;;
28003;SDS011;15330;51.234;6.754;2023-04-19T09:19:05;8.15;;;4.75;;
28003;SDS011;15330;51.234;6.754;2023-04-19T09:21:31;10.45;;;5.32;;
28003;SDS011;15330;51.234;6.754;2023-04-19T09:23:57;7.40;;;4.57;;
28003;SDS011;15330;51.234;6.754;2023-04-19T09:26:24;6.65;;;4.88;;
28003;SDS011;15330;51.234;6.754;2023-04-19T09:29:11;12.15;;;5.20;;
28003;SDS011;15330;51.234;6.754;2023-04-19T09:31:41;11.73;;;5.53;;
28003;SDS011;15330;51.234;6.754;2023-04-19T09:34:21;5.80;;;4.57;;
28003;SDS011;15330;51.234;6.754;2023-04-19T09:36:48;6.65;;;4.90;;
28003;SDS011;15330;51.234;6.754;2023-04-19T09:39:13;12.48;;;4.80;;
28003;SDS011;15330;51.234;6.754;2023-04-19T09:41:52;9.70;;;5.10;;
28003;SDS011;15330;51.234;6.754;2023-04-19T09:44:18;10.55;;;4.57;;
28003;SDS011;15330;51.234;6.754;2023-04-19T09:46:45;10.57;;;4.93;;
28003;SDS011;15330;51.234;6.754;2023-04-19T09:51:42;17.35;;;4.72;;
28003;SDS011;15330;51.234;6.754;2023-04-19T09:54:09;11.85;;;4.32;;
28003;SDS011;15330;51.234;6.754;2023-04-19T09:56:36;8.00;;;4.25;;
28003;SDS011;15330;51.234;6.754;2023-04-19T09:59:01;9.05;;;4.03;;
28003;SDS011;15330;51.234;6.754;2023-04-19T10:01:27;8.55;;;3.90;;
28003;SDS011;15330;51.234;6.754;2023-04-19T10:03:58;4.65;;;3.47;;
28003;SDS011;15330;51.234;6.754;2023-04-19T10:06:24;7.05;;;3.88;;
28003;SDS011;15330;51.234;6.754;2023-04-19T10:08:52;10.15;;;3.85;;
28003;SDS011;15330;51.234;6.754;2023-04-19T10:11:20;6.70;;;3.53;;
28003;SDS011;15330;51.234;6.754;2023-04-19T10:13:46;5.03;;;3.83;;
28003;SDS011;15330;51.234;6.754;2023-04-19T10:16:13;6.72;;;3.50;;
28003;SDS011;15330;51.234;6.754;2023-04-19T10:18:39;4.85;;;3.13;;
28003;SDS011;15330;51.234;6.754;2023-04-19T10:21:06;6.82;;;3.13;;
28003;SDS011;15330;51.234;6.754;2023-04-19T10:23:35;5.07;;;3.58;;
28003;SDS011;15330;51.234;6.754;2023-04-19T10:26:01;4.57;;;3.13;;
28003;SDS011;15330;51.234;6.754;2023-04-19T10:28:27;8.90;;;3.50;;
28003;SDS011;15330;51.234;6.754;2023-04-19T10:33:26;10.20;;;2.92;;
28003;SDS011;15330;51.234;6.754;2023-04-19T10:35:56;3.70;;;2.70;;
28003;SDS011;15330;51.234;6.754;2023-04-19T10:38:35;4.35;;;2.83;;
28003;SDS011;15330;51.234;6.754;2023-04-19T10:41:04;5.53;;;2.67;;
28003;SDS011;15330;51.234;6.754;2023-04-19T10:43:35;3.88;;;2.38;;
28003;SDS011;15330;51.234;6.754;2023-04-19T10:51:19;5.93;;;2.90;;
28003;SDS011;15330;51.234;6.754;2023-04-19T10:53:53;3.65;;;2.35;;
28003;SDS011;15330;51.234;6.754;2023-04-19T11:04:16;4.35;;;2.15;;
28003;SDS011;15330;51.234;6.754;2023-04-19T11:11:51;11.10;;;4.60;;
28003;SDS011;15330;51.234;6.754;2023-04-19T11:14:22;5.60;;;2.85;;
28003;SDS011;15330;51.234;6.754;2023-04-19T11:16:48;8.27;;;2.92;;
28003;SDS011;15330;51.234;6.754;2023-04-19T11:19:20;6.43;;;3.22;;
28003;SDS011;15330;51.234;6.754;2023-04-19T11:21:46;6.03;;;3.03;;
28003;SDS011;15330;51.234;6.754;2023-04-19T11:24:12;5.32;;;3.30;;
28003;SDS011;15330;51.234;6.754;2023-04-19T11:26:43;4.30;;;2.95;;
28003;SDS011;15330;51.234;6.754;2023-04-19T11:29:10;4.18;;;2.80;;
28003;SDS011;15330;51.234;6.754;2023-04-19T11:31:36;6.78;;;3.15;;
28003;SDS011;15330;51.234;6.754;2023-04-19T11:34:02;6.65;;;2.92;;
28003;SDS011;15330;51.234;6.754;2023-04-19T11:36:27;6.55;;;3.58;;
28003;SDS011;15330;51.234;6.754;2023-04-19T11:38:53;4.97;;;2.80;;
28003;SDS011;15330;51.234;6.754;2023-04-19T11:41:19;4.35;;;2.88;;
28003;SDS011;15330;51.234;6.754;2023-04-19T11:43:44;7.15;;;2.95;;
28003;SDS011;15330;51.234;6.754;2023-04-19T11:46:11;4.38;;;3.10;;
28003;SDS011;15330;51.234;6.754;2023-04-19T11:48:48;4.68;;;3.15;;
28003;SDS011;15330;51.234;6.754;2023-04-19T11:51:16;6.32;;;3.20;;
28003;SDS011;15330;51.234;6.754;2023-04-19T11:53:41;5.32;;;3.38;;
28003;SDS011;15330;51.234;6.754;2023-04-19T11:56:07;5.30;;;3.55;;
28003;SDS011;15330;51.234;6.754;2023-04-19T11:58:40;6.13;;;3.63;;
28003;SDS011;15330;51.234;6.754;2023-04-19T12:06:10;5.68;;;3.08;;
28003;SDS011;15330;51.234;6.754;2023-04-19T12:08:46;6.07;;;3.08;;
28003;SDS011;15330;51.234;6.754;2023-04-19T12:11:13;4.75;;;3.40;;
28003;SDS011;15330;51.234;6.754;2023-04-19T12:13:39;3.38;;;3.08;;
28003;SDS011;15330;51.234;6.754;2023-04-19T12:16:05;4.80;;;3.30;;
28003;SDS011;15330;51.234;6.754;2023-04-19T12:18:41;5.80;;;3.30;;
28003;SDS011;15330;51.234;6.754;2023-04-19T12:21:08;7.57;;;3.47;;
28003;SDS011;15330;51.234;6.754;2023-04-19T12:23:35;8.68;;;4.15;;
28003;SDS011;15330;51.234;6.754;2023-04-19T12:26:02;6.13;;;3.53;;
28003;SDS011;15330;51.234;6.754;2023-04-19T12:28:29;9.35;;;3.42;;
28003;SDS011;15330;51.234;6.754;2023-04-19T12:30:55;4.55;;;3.45;;
28003;SDS011;15330;51.234;6.754;2023-04-19T12:33:20;5.68;;;3.63;;
28003;SDS011;15330;51.234;6.754;2023-04-19T12:35:45;5.40;;;3.38;;
28003;SDS011;15330;51.234;6.754;2023-04-19T12:38:11;8.07;;;3.80;;
28003;SDS011;15330;51.234;6.754;2023-04-19T12:40:36;9.73;;;3.90;;
28003;SDS011;15330;51.234;6.754;2023-04-19T12:43:01;8.18;;;4.43;;
28003;SDS011;15330;51.234;6.754;2023-04-19T12:45:27;7.43;;;3.63;;
28003;SDS011;15330;51.234;6.754;2023-04-19T12:47:52;11.45;;;4.10;;
28003;SDS011;15330;51.234;6.754;2023-04-19T12:50:18;7.15;;;4.28;;
28003;SDS011;15330;51.234;6.754;2023-04-19T12:52:43;6.25;;;4.07;;
28003;SDS011;15330;51.234;6.754;2023-04-19T12:55:10;4.63;;;3.67;;
28003;SDS011;15330;51.234;6.754;2023-04-19T12:57:35;10.02;;;4.20;;
28003;SDS011;15330;51.234;6.754;2023-04-19T13:00:01;5.80;;;3.67;;
28003;SDS011;15330;51.234;6.754;2023-04-19T13:02:26;7.00;;;4.22;;
28003;SDS011;15330;51.234;6.754;2023-04-19T13:04:52;6.97;;;4.13;;
28003;SDS011;15330;51.234;6.754;2023-04-19T13:07:17;6.35;;;4.05;;
28003;SDS011;15330;51.234;6.754;2023-04-19T13:09:43;8.57;;;4.45;;
28003;SDS011;15330;51.234;6.754;2023-04-19T13:12:08;5.20;;;4.15;;
28003;SDS011;15330;51.234;6.754;2023-04-19T13:14:34;7.82;;;4.15;;
28003;SDS011;15330;51.234;6.754;2023-04-19T13:16:59;9.07;;;4.50;;
28003;SDS011;15330;51.234;6.754;2023-04-19T13:19:25;11.07;;;4.88;;
28003;SDS011;15330;51.234;6.754;2023-04-19T13:21:50;7.82;;;4.63;;
28003;SDS011;15330;51.234;6.754;2023-04-19T13:24:16;7.70;;;4.53;;
28003;SDS011;15330;51.234;6.754;2023-04-19T13:26:41;6.55;;;5.00;;
28003;SDS011;15330;51.234;6.754;2023-04-19T13:29:09;11.35;;;5.18;;
28003;SDS011;15330;51.234;6.754;2023-04-19T13:31:35;10.30;;;5.30;;
28003;SDS011;15330;51.234;6.754;2023-04-19T13:34:00;7.60;;;5.03;;
28003;SDS011;15330;51.234;6.754;2023-04-19T13:36:46;8.57;;;5.78;;
28003;SDS011;15330;51.234;6.754;2023-04-19T13:39:11;8.13;;;5.50;;
28003;SDS011;15330;51.234;6.754;2023-04-19T13:41:37;10.85;;;5.38;;
28003;SDS011;15330;51.234;6.754;2023-04-19T13:44:02;8.82;;;4.28;;
28003;SDS011;15330;51.234;6.754;2023-04-19T13:46:28;10.88;;;5.70;;
28003;SDS011;15330;51.234;6.754;2023-04-19T13:48:53;6.32;;;4.50;;
28003;SDS011;15330;51.234;6.754;2023-04-19T13:51:18;8.50;;;5.00;;
28003;SDS011;15330;51.234;6.754;2023-04-19T13:53:44;11.25;;;5.78;;
28003;SDS011;15330;51.234;6.754;2023-04-19T13:56:09;9.20;;;5.63;;
28003;SDS011;15330;51.234;6.754;2023-04-19T13:58:35;10.80;;;5.70;;
28003;SDS011;15330;51.234;6.754;2023-04-19T14:01:00;8.57;;;4.80;;
28003;SDS011;15330;51.234;6.754;2023-04-19T14:03:26;11.85;;;5.25;;
28003;SDS011;15330;51.234;6.754;2023-04-19T14:05:51;12.05;;;5.18;;
28003;SDS011;15330;51.234;6.754;2023-04-19T14:08:17;10.93;;;5.40;;
28003;SDS011;15330;51.234;6.754;2023-04-19T14:10:42;8.73;;;5.10;;
28003;SDS011;15330;51.234;6.754;2023-04-19T14:13:08;10.65;;;5.95;;
28003;SDS011;15330;51.234;6.754;2023-04-19T14:15:33;7.05;;;4.88;;
28003;SDS011;15330;51.234;6.754;2023-04-19T14:17:58;10.25;;;5.43;;
28003;SDS011;15330;51.234;6.754;2023-04-19T14:20:24;10.48;;;5.40;;
28003;SDS011;15330;51.234;6.754;2023-04-19T14:22:50;8.63;;;5.18;;
28003;SDS011;15330;51.234;6.754;2023-04-19T14:25:15;7.18;;;5.18;;
28003;SDS011;15330;51.234;6.754;2023-04-19T14:27:42;13.15;;;5.32;;
28003;SDS011;15330;51.234;6.754;2023-04-19T14:30:08;10.32;;;5.55;;
28003;SDS011;15330;51.234;6.754;2023-04-19T14:32:34;6.07;;;5.18;;
28003;SDS011;15330;51.234;6.754;2023-04-19T14:34:59;10.50;;;5.10;;
28003;SDS011;15330;51.234;6.754;2023-04-19T14:37:26;7.88;;;5.05;;
28003;SDS011;15330;51.234;6.754;2023-04-19T14:39:51;8.10;;;5.20;;
28003;SDS011;15330;51.234;6.754;2023-04-19T14:42:17;7.28;;;5.03;;
28003;SDS011;15330;51.234;6.754;2023-04-19T14:44:43;13.38;;;6.18;;
28003;SDS011;15330;51.234;6.754;2023-04-19T14:47:10;19.13;;;8.57;;
28003;SDS011;15330;51.234;6.754;2023-04-19T14:49:35;24.10;;;13.65;;
28003;SDS011;15330;51.234;6.754;2023-04-19T14:52:00;23.45;;;12.23;;
28003;SDS011;15330;51.234;6.754;2023-04-19T14:54:27;10.13;;;5.72;;
28003;SDS011;15330;51.234;6.754;2023-04-19T14:56:53;11.02;;;5.70;;